createdAt,value
2022-12-16T00:01:17.929Z,8.68
2022-12-16T00:03:54.832Z,8.60
2022-12-16T00:06:26.931Z,8.60
2022-12-16T00:08:55.401Z,8.64
2022-12-16T00:11:23.680Z,8.65
2022-12-16T00:13:51.681Z,8.73
2022-12-16T00:16:21.624Z,8.60
2022-12-16T00:18:51.887Z,8.66
2022-12-16T00:21:20.943Z,8.81
2022-12-16T00:23:49.245Z,8.53
2022-12-16T00:26:17.451Z,8.30
2022-12-16T00:28:45.659Z,8.15
2022-12-16T00:31:14.087Z,7.93
2022-12-16T00:33:42.281Z,8.29
2022-12-16T00:36:10.732Z,8.26
2022-12-16T00:38:38.841Z,8.43
2022-12-16T00:41:08.723Z,8.59
2022-12-16T00:43:36.753Z,8.52
2022-12-16T00:46:05.501Z,8.49
2022-12-16T00:48:34.270Z,8.41
2022-12-16T00:51:02.665Z,8.54
2022-12-16T00:53:31.065Z,8.65
2022-12-16T00:56:09.619Z,8.59
2022-12-16T00:58:38.156Z,8.66
2022-12-16T01:01:06.949Z,8.56
2022-12-16T01:03:35.820Z,8.50
2022-12-16T01:06:15.708Z,8.67
2022-12-16T01:08:49.000Z,8.70
2022-12-16T01:11:18.335Z,8.68
2022-12-16T01:13:49.649Z,8.68
2022-12-16T01:16:18.103Z,8.72
2022-12-16T01:18:46.759Z,8.75
2022-12-16T01:21:15.968Z,8.49
2022-12-16T01:23:43.888Z,8.77
2022-12-16T01:26:16.980Z,8.88
2022-12-16T01:28:45.371Z,9.05
2022-12-16T01:31:16.841Z,9.10
2022-12-16T01:33:44.990Z,9.17
2022-12-16T01:36:13.280Z,9.03
2022-12-16T01:38:44.413Z,8.94
2022-12-16T01:41:15.700Z,9.10
2022-12-16T01:43:45.773Z,9.00
2022-12-16T01:46:13.940Z,8.76
2022-12-16T01:49:02.850Z,8.34
2022-12-16T01:51:38.581Z,8.52
2022-12-16T01:57:28.741Z,8.58
2022-12-16T01:59:58.070Z,8.54
2022-12-16T02:02:28.275Z,8.66
2022-12-16T02:05:15.499Z,8.68
2022-12-16T02:07:43.341Z,8.96
2022-12-16T02:13:24.823Z,8.97
2022-12-16T02:16:17.354Z,8.87
2022-12-16T02:19:18.260Z,9.12
2022-12-16T02:22:22.221Z,9.09
2022-12-16T02:25:43.645Z,9.26
2022-12-16T02:31:35.800Z,9.19
2022-12-16T02:34:04.020Z,9.04
2022-12-16T02:36:41.020Z,9.24
2022-12-16T02:39:37.968Z,9.01
2022-12-16T02:42:26.740Z,9.22
2022-12-16T02:48:15.395Z,9.08
2022-12-16T02:50:51.541Z,8.69
2022-12-16T02:53:21.101Z,8.48
2022-12-16T02:56:01.253Z,8.57
2022-12-16T02:58:41.330Z,8.57
2022-12-16T03:04:37.459Z,8.42
2022-12-16T03:07:10.731Z,8.40
2022-12-16T03:09:41.347Z,8.79
2022-12-16T03:12:16.471Z,8.96
2022-12-16T03:14:48.681Z,8.95
2022-12-16T03:20:32.100Z,8.95
2022-12-16T03:23:07.132Z,8.55
2022-12-16T03:25:38.970Z,8.26
2022-12-16T03:28:17.152Z,8.29
2022-12-16T03:30:52.222Z,8.52
2022-12-16T03:33:29.385Z,8.43
2022-12-16T03:36:22.771Z,8.13
2022-12-16T03:38:52.099Z,8.07
2022-12-16T03:41:22.191Z,7.92
2022-12-16T03:43:50.870Z,8.37
2022-12-16T03:46:18.989Z,8.39
2022-12-16T03:48:50.090Z,8.47
2022-12-16T03:54:24.510Z,8.21
2022-12-16T03:56:52.931Z,8.36
2022-12-16T03:59:20.861Z,8.51
2022-12-16T04:01:50.624Z,8.22
2022-12-16T04:04:19.313Z,8.58
2022-12-16T04:07:07.494Z,8.58
2022-12-16T04:09:38.438Z,8.40
2022-12-16T04:12:25.474Z,8.61
2022-12-16T04:15:11.789Z,8.77
2022-12-16T04:17:58.743Z,8.63
2022-12-16T04:20:51.566Z,8.50
2022-12-16T04:23:45.226Z,8.34
2022-12-16T04:26:26.324Z,8.37
2022-12-16T04:28:54.630Z,7.80
2022-12-16T04:31:22.627Z,8.19
2022-12-16T04:34:09.676Z,7.97
2022-12-16T04:36:56.491Z,8.06
2022-12-16T04:39:43.424Z,8.28
2022-12-16T04:45:53.237Z,8.02
2022-12-16T04:48:40.210Z,7.97
2022-12-16T04:51:26.563Z,7.72
2022-12-16T04:54:14.635Z,8.19
2022-12-16T04:57:01.383Z,7.85
2022-12-16T05:00:00.783Z,7.67
2022-12-16T05:02:47.198Z,7.95
2022-12-16T05:05:34.141Z,7.78
2022-12-16T05:08:20.715Z,7.76
2022-12-16T05:11:07.404Z,7.62
2022-12-16T05:13:54.174Z,7.83
2022-12-16T05:16:41.014Z,8.07
2022-12-16T05:19:31.630Z,8.14
2022-12-16T05:22:18.910Z,8.20
2022-12-16T05:25:05.567Z,8.26
2022-12-16T05:27:52.154Z,8.36
2022-12-16T05:34:01.243Z,7.66
2022-12-16T05:36:48.523Z,7.59
2022-12-16T05:39:34.682Z,7.65
2022-12-16T05:42:21.581Z,7.42
2022-12-16T05:45:08.162Z,7.79
2022-12-16T05:47:55.353Z,7.82
2022-12-16T05:50:42.142Z,7.84
2022-12-16T05:53:29.365Z,7.86
2022-12-16T05:56:15.922Z,7.29
2022-12-16T05:59:02.782Z,7.47
2022-12-16T06:01:49.579Z,7.52
2022-12-16T06:04:37.242Z,7.28
2022-12-16T06:07:23.668Z,7.49
2022-12-16T06:10:11.643Z,7.67
2022-12-16T06:12:58.221Z,7.61
2022-12-16T06:15:44.889Z,7.64
2022-12-16T06:18:31.311Z,7.66
2022-12-16T06:21:19.524Z,7.43
2022-12-16T06:24:06.083Z,7.48
2022-12-16T06:26:52.960Z,7.15
2022-12-16T06:29:41.145Z,7.09
2022-12-16T06:32:28.080Z,7.17
2022-12-16T06:35:14.632Z,7.42
2022-12-16T06:38:06.488Z,7.29
2022-12-16T06:40:53.258Z,7.21
2022-12-16T06:43:42.180Z,7.41
2022-12-16T06:46:28.810Z,7.26
2022-12-16T06:49:15.641Z,7.04
2022-12-16T06:52:02.688Z,7.00
2022-12-16T06:54:49.278Z,7.23
2022-12-16T06:57:35.947Z,7.37
2022-12-16T07:00:23.147Z,7.54
2022-12-16T07:03:09.686Z,7.64
2022-12-16T07:05:57.711Z,7.31
2022-12-16T07:08:44.374Z,7.39
2022-12-16T07:11:30.967Z,7.79
2022-12-16T07:14:17.805Z,8.11
2022-12-16T07:17:05.155Z,8.17
2022-12-16T07:19:51.774Z,8.30
2022-12-16T07:22:39.216Z,8.31
2022-12-16T07:25:26.226Z,8.08
2022-12-16T07:28:15.633Z,7.85
2022-12-16T07:31:02.627Z,7.93
2022-12-16T07:33:50.264Z,8.07
2022-12-16T07:36:37.063Z,7.79
2022-12-16T07:39:25.054Z,7.77
2022-12-16T07:42:11.615Z,8.10
2022-12-16T07:44:58.444Z,7.65
2022-12-16T07:47:44.684Z,8.07
2022-12-16T07:50:33.226Z,7.72
2022-12-16T07:53:19.664Z,7.54
2022-12-16T07:56:06.284Z,7.69
2022-12-16T07:58:52.843Z,7.82
2022-12-16T08:01:42.645Z,7.70
2022-12-16T08:04:29.367Z,7.58
2022-12-16T08:07:16.245Z,7.73
2022-12-16T08:10:02.744Z,7.96
2022-12-16T08:12:49.493Z,7.70
2022-12-16T08:15:36.025Z,7.87
2022-12-16T08:18:24.114Z,7.44
2022-12-16T08:21:10.864Z,7.92
2022-12-16T08:23:58.639Z,7.73
2022-12-16T08:26:45.288Z,7.24
2022-12-16T08:29:44.350Z,7.18
2022-12-16T08:32:35.737Z,7.46
2022-12-16T08:35:22.638Z,7.45
2022-12-16T08:38:14.107Z,7.19
2022-12-16T08:41:02.487Z,6.97
2022-12-16T08:43:53.938Z,7.08
2022-12-16T08:46:43.102Z,7.32
2022-12-16T08:49:29.778Z,7.00
2022-12-16T08:52:16.387Z,6.83
2022-12-16T08:55:02.827Z,6.91
2022-12-16T08:57:49.688Z,7.00
2022-12-16T09:00:36.567Z,6.87
2022-12-16T09:03:24.021Z,7.24
2022-12-16T09:06:10.782Z,7.62
2022-12-16T09:08:58.487Z,7.48
2022-12-16T09:11:45.188Z,7.71
2022-12-16T09:14:32.305Z,7.66
2022-12-16T09:17:18.538Z,7.85
2022-12-16T09:20:06.200Z,8.16
2022-12-16T09:22:52.768Z,8.30
2022-12-16T09:25:42.061Z,8.50
2022-12-16T09:28:28.288Z,8.49
2022-12-16T09:31:31.904Z,8.51
2022-12-16T09:34:18.298Z,8.52
2022-12-16T09:37:05.080Z,8.43
2022-12-16T09:39:51.698Z,8.66
2022-12-16T09:42:52.019Z,8.68
2022-12-16T09:46:05.921Z,8.92
2022-12-16T09:49:01.659Z,8.85
2022-12-16T09:51:48.728Z,8.84
2022-12-16T09:54:42.472Z,8.92
2022-12-16T09:57:29.115Z,8.96
2022-12-16T10:00:23.122Z,9.01
2022-12-16T10:03:09.962Z,9.07
2022-12-16T10:06:26.515Z,9.05
2022-12-16T10:09:24.990Z,9.17
2022-12-16T10:12:25.470Z,9.24
2022-12-16T10:15:23.689Z,9.19
2022-12-16T10:18:10.459Z,9.32
2022-12-16T10:21:09.198Z,9.13
2022-12-16T10:24:33.908Z,9.38
2022-12-16T10:27:33.894Z,8.95
2022-12-16T10:30:22.872Z,8.83
2022-12-16T10:33:09.830Z,8.78
2022-12-16T10:36:00.670Z,8.89
2022-12-16T10:38:57.560Z,8.69
2022-12-16T10:41:52.908Z,8.66
2022-12-16T10:44:48.219Z,9.14
2022-12-16T10:47:36.000Z,9.25
2022-12-16T10:50:22.800Z,9.41
2022-12-16T10:53:33.197Z,9.47
2022-12-16T10:56:33.268Z,9.49
2022-12-16T10:59:24.587Z,9.47
2022-12-16T11:02:24.076Z,9.17
2022-12-16T11:05:11.210Z,9.21
2022-12-16T11:08:11.370Z,9.28
2022-12-16T11:11:00.954Z,9.05
2022-12-16T11:13:51.019Z,9.23
2022-12-16T11:16:43.675Z,8.96
2022-12-16T11:19:41.097Z,8.94
2022-12-16T11:22:41.199Z,9.00
2022-12-16T11:25:36.982Z,9.29
2022-12-16T11:28:36.535Z,9.05
2022-12-16T11:31:31.875Z,9.14
2022-12-16T11:34:21.767Z,8.98
2022-12-16T11:37:11.050Z,9.07
2022-12-16T11:39:58.611Z,8.79
2022-12-16T11:42:50.598Z,9.05
2022-12-16T11:45:40.225Z,9.08
2022-12-16T11:48:41.526Z,8.78
2022-12-16T11:51:32.502Z,8.90
2022-12-16T11:54:58.017Z,9.13
2022-12-16T11:57:59.927Z,8.93
2022-12-16T12:00:47.615Z,9.06
2022-12-16T12:03:43.401Z,9.12
2022-12-16T12:06:51.318Z,8.95
2022-12-16T12:09:46.207Z,8.93
2022-12-16T12:12:49.576Z,8.89
2022-12-16T12:16:05.535Z,9.12
2022-12-16T12:19:03.953Z,9.38
2022-12-16T12:22:00.821Z,9.51
2022-12-16T12:24:58.190Z,9.37
2022-12-16T12:28:18.315Z,8.99
2022-12-16T12:31:18.257Z,9.28
2022-12-16T12:34:38.486Z,9.22
2022-12-16T12:37:36.757Z,9.19
2022-12-16T12:40:51.077Z,9.35
2022-12-16T12:43:57.306Z,9.05
2022-12-16T12:47:17.797Z,9.37
2022-12-16T12:50:29.009Z,9.69
2022-12-16T12:53:34.600Z,9.59
2022-12-16T12:56:37.848Z,9.49
2022-12-16T12:59:41.777Z,9.45
2022-12-16T13:02:38.958Z,9.60
2022-12-16T13:05:34.146Z,9.86
2022-12-16T13:08:51.587Z,9.64
2022-12-16T13:11:40.575Z,9.65
2022-12-16T13:14:51.848Z,9.78
2022-12-16T13:17:41.771Z,9.39
2022-12-16T13:20:57.694Z,9.32
2022-12-16T13:23:47.674Z,9.18
2022-12-16T13:26:36.581Z,9.31
2022-12-16T13:29:41.839Z,9.49
2022-12-16T13:32:28.240Z,8.95
2022-12-16T13:35:27.184Z,9.24
2022-12-16T13:38:19.340Z,9.29
2022-12-16T13:41:20.017Z,9.32
2022-12-16T13:44:19.391Z,9.08
2022-12-16T13:47:13.137Z,8.98
2022-12-16T13:50:10.985Z,8.67
2022-12-16T13:53:03.441Z,8.96
2022-12-16T13:55:56.927Z,9.12
2022-12-16T13:58:57.852Z,9.07
2022-12-16T14:01:55.741Z,9.06
2022-12-16T14:04:48.887Z,9.07
2022-12-16T14:07:41.177Z,9.32
2022-12-16T14:10:44.636Z,9.27
2022-12-16T14:13:41.788Z,8.95
2022-12-16T14:16:33.334Z,9.10
2022-12-16T14:19:33.728Z,8.75
2022-12-16T14:23:47.309Z,8.95
2022-12-16T14:26:31.836Z,8.70
2022-12-16T14:29:21.118Z,8.62
2022-12-16T14:32:07.400Z,8.76
2022-12-16T14:34:56.316Z,8.86
2022-12-16T14:37:53.320Z,8.94
2022-12-16T14:40:48.659Z,8.84
2022-12-16T14:43:39.547Z,9.30
2022-12-16T14:46:50.737Z,9.23
2022-12-16T14:49:51.147Z,9.35
2022-12-16T14:52:46.850Z,9.51
2022-12-16T14:55:37.038Z,9.29
2022-12-16T14:58:36.047Z,9.24
2022-12-16T15:01:35.033Z,9.23
2022-12-16T15:04:27.790Z,9.52
2022-12-16T15:07:14.993Z,9.13
2022-12-16T15:10:09.597Z,9.38
2022-12-16T15:13:04.698Z,9.45
2022-12-16T15:15:57.538Z,9.59
2022-12-16T15:18:51.071Z,9.53
2022-12-16T15:21:38.227Z,9.59
2022-12-16T15:24:29.767Z,9.79
2022-12-16T15:27:52.868Z,9.55
2022-12-16T15:30:53.721Z,9.65
2022-12-16T15:33:44.530Z,9.79
2022-12-16T15:36:37.498Z,9.76
2022-12-16T15:39:46.051Z,9.88
2022-12-16T15:42:39.638Z,9.82
2022-12-16T15:45:49.842Z,9.71
2022-12-16T15:48:42.003Z,9.49
2022-12-16T15:51:47.357Z,9.56
2022-12-16T15:54:42.878Z,9.46
2022-12-16T15:57:52.922Z,9.42
2022-12-16T16:00:45.563Z,9.07
2022-12-16T16:03:58.346Z,9.30
2022-12-16T16:06:45.898Z,8.96
2022-12-16T16:09:33.594Z,9.41
2022-12-16T16:12:20.462Z,9.56
2022-12-16T16:15:08.503Z,9.60
2022-12-16T16:17:55.093Z,9.42
2022-12-16T16:20:42.152Z,9.32
2022-12-16T16:23:29.622Z,9.38
2022-12-16T16:26:16.872Z,9.35
2022-12-16T16:29:03.401Z,9.58
2022-12-16T16:31:50.311Z,9.14
2022-12-16T16:34:36.842Z,9.22
2022-12-16T16:37:32.829Z,8.74
2022-12-16T16:40:20.559Z,9.07
2022-12-16T16:43:07.404Z,9.21
2022-12-16T16:45:54.028Z,9.26
2022-12-16T16:48:41.013Z,9.47
2022-12-16T16:51:27.580Z,9.19
2022-12-16T16:54:14.931Z,9.17
2022-12-16T16:57:01.583Z,8.92
2022-12-16T16:59:48.169Z,8.98
2022-12-16T17:02:41.147Z,9.25
2022-12-16T17:05:31.145Z,9.09
2022-12-16T17:08:17.613Z,9.06
2022-12-16T17:11:06.451Z,8.91
2022-12-16T17:13:53.183Z,8.79
2022-12-16T17:16:40.216Z,9.24
2022-12-16T17:19:26.794Z,9.39
2022-12-16T17:22:13.663Z,9.46
2022-12-16T17:25:00.287Z,9.43
2022-12-16T17:27:47.402Z,9.54
2022-12-16T17:30:46.635Z,9.52
2022-12-16T17:33:35.603Z,9.52
2022-12-16T17:36:25.100Z,9.28
2022-12-16T17:39:15.842Z,9.53
2022-12-16T17:42:02.563Z,9.30
2022-12-16T17:44:49.793Z,9.09
2022-12-16T17:47:36.692Z,9.40
2022-12-16T17:50:25.043Z,9.20
2022-12-16T17:53:15.262Z,9.17
2022-12-16T17:56:02.382Z,9.43
2022-12-16T17:58:55.071Z,9.14
2022-12-16T18:01:43.654Z,8.75
2022-12-16T18:04:30.477Z,8.78
2022-12-16T18:07:17.586Z,8.80
2022-12-16T18:10:04.263Z,8.86
2022-12-16T18:12:52.183Z,9.08
2022-12-16T18:15:38.833Z,9.00
2022-12-16T18:18:25.801Z,8.76
2022-12-16T18:21:12.453Z,9.05
2022-12-16T18:23:59.833Z,9.24
2022-12-16T18:26:46.275Z,9.33
2022-12-16T18:29:34.033Z,9.13
2022-12-16T18:32:20.708Z,8.96
2022-12-16T18:35:07.633Z,8.88
2022-12-16T18:37:54.264Z,8.95
2022-12-16T18:40:41.194Z,8.89
2022-12-16T18:43:30.479Z,8.97
2022-12-16T18:46:18.377Z,8.65
2022-12-16T18:49:04.892Z,8.70
2022-12-16T18:51:51.490Z,9.06
2022-12-16T18:54:38.034Z,9.26
2022-12-16T18:57:25.945Z,9.08
2022-12-16T19:00:12.445Z,9.48
2022-12-16T19:02:59.909Z,9.62
2022-12-16T19:05:46.384Z,9.38
2022-12-16T19:08:33.472Z,9.22
2022-12-16T19:11:20.933Z,9.37
2022-12-16T19:14:09.152Z,9.53
2022-12-16T19:16:56.417Z,9.76
2022-12-16T19:19:43.885Z,9.60
2022-12-16T19:22:30.584Z,9.70
2022-12-16T19:25:17.093Z,9.69
2022-12-16T19:28:04.757Z,9.61
2022-12-16T19:30:52.615Z,9.69
2022-12-16T19:33:43.064Z,9.40
2022-12-16T19:36:29.761Z,9.56
2022-12-16T19:39:17.256Z,9.06
2022-12-16T19:42:04.231Z,9.39
2022-12-16T19:44:50.733Z,9.34
2022-12-16T19:47:38.979Z,9.48
2022-12-16T19:50:28.720Z,9.78
2022-12-16T19:53:15.903Z,9.62
2022-12-16T19:56:02.720Z,9.45
2022-12-16T19:58:49.892Z,9.35
2022-12-16T20:01:36.769Z,9.41
2022-12-16T20:04:23.311Z,9.45
2022-12-16T20:07:09.763Z,9.25
2022-12-16T20:09:56.951Z,9.25
2022-12-16T20:12:50.996Z,9.26
2022-12-16T20:15:40.006Z,9.23
2022-12-16T20:18:26.453Z,8.92
2022-12-16T20:21:13.171Z,8.90
2022-12-16T20:23:59.901Z,8.95
2022-12-16T20:26:46.526Z,8.98
2022-12-16T20:29:33.135Z,8.71
2022-12-16T20:32:21.201Z,8.75
2022-12-16T20:35:07.771Z,8.37
2022-12-16T20:37:56.188Z,8.50
2022-12-16T20:40:42.904Z,8.68
2022-12-16T20:43:31.711Z,8.98
2022-12-16T20:46:17.985Z,9.00
2022-12-16T20:49:05.258Z,9.17
2022-12-16T20:51:51.600Z,9.20
2022-12-16T20:54:38.363Z,8.94
2022-12-16T20:57:25.235Z,8.99
2022-12-16T21:00:12.193Z,9.25
2022-12-16T21:02:58.664Z,8.71
2022-12-16T21:05:46.249Z,9.08
2022-12-16T21:08:32.860Z,9.16
2022-12-16T21:11:19.620Z,9.22
2022-12-16T21:14:06.376Z,9.29
2022-12-16T21:16:53.209Z,9.28
2022-12-16T21:19:42.887Z,9.17
2022-12-16T21:22:29.609Z,9.11
2022-12-16T21:25:21.104Z,9.31
2022-12-16T21:28:16.247Z,9.30
2022-12-16T21:31:03.560Z,9.48
2022-12-16T21:33:51.564Z,9.55
2022-12-16T21:36:38.436Z,9.59
2022-12-16T21:39:28.503Z,9.62
2022-12-16T21:42:15.193Z,9.67
2022-12-16T21:45:01.825Z,9.67
2022-12-16T21:47:48.295Z,9.53
2022-12-16T21:50:35.048Z,9.56
2022-12-16T21:53:21.866Z,9.70
2022-12-16T21:56:13.895Z,9.73
2022-12-16T21:59:02.992Z,9.69
2022-12-16T22:01:50.293Z,9.78
2022-12-16T22:04:36.958Z,9.83
2022-12-16T22:07:23.639Z,9.27
2022-12-16T22:10:10.357Z,9.19
2022-12-16T22:12:57.108Z,9.22
2022-12-16T22:15:43.580Z,9.41
2022-12-16T22:18:30.103Z,9.61
2022-12-16T22:21:22.517Z,9.59
2022-12-16T22:24:10.703Z,9.23
2022-12-16T22:26:57.467Z,8.96
2022-12-16T22:29:45.337Z,9.26
2022-12-16T22:32:31.789Z,9.17
2022-12-16T22:35:18.582Z,9.22
2022-12-16T22:38:05.603Z,9.35
2022-12-16T22:40:52.740Z,9.58
2022-12-16T22:43:49.727Z,9.64
2022-12-16T22:46:36.438Z,9.39
2022-12-16T22:49:23.249Z,9.33
2022-12-16T22:52:10.111Z,9.37
2022-12-16T22:54:56.389Z,9.36
2022-12-16T22:57:43.046Z,9.21
2022-12-16T23:00:30.399Z,9.34
2022-12-16T23:03:17.702Z,9.27
2022-12-16T23:06:04.259Z,8.63
2022-12-16T23:08:51.552Z,8.79
2022-12-16T23:11:42.308Z,8.67
2022-12-16T23:14:29.041Z,8.90
2022-12-16T23:17:15.661Z,8.74
2022-12-16T23:20:02.497Z,8.95
2022-12-16T23:22:49.154Z,9.23
2022-12-16T23:25:37.445Z,9.21
2022-12-16T23:28:23.870Z,9.34
2022-12-16T23:31:12.677Z,9.37
2022-12-16T23:33:59.217Z,9.50
2022-12-16T23:36:46.967Z,9.56
2022-12-16T23:39:34.379Z,9.54
2022-12-16T23:42:20.927Z,9.50
2022-12-16T23:45:07.305Z,9.63
2022-12-16T23:47:54.216Z,9.75
2022-12-16T23:50:44.350Z,9.64
2022-12-16T23:53:32.864Z,9.69
2022-12-16T23:56:30.876Z,9.70
2022-12-16T23:59:18.297Z,9.63
